Wetterdaten: Woche 02.01.12 - 08.01.12 (KW1)
Datum Zeit Temp. Innen Temp. Aussen UV X Diff Temp. Feuchte Inne Feuchte Auss Sonnenschein Luftdruck Regen ab 0,1 Wind Sonnenschein T Regendauer Windben
02.01.2012 00:00 16,9 C 14,3 C 0,0 UV-I 0,0 C 65 % 81 % 0 % 1003,3 hPa 0,0 l/m 15,5 km/h (3 Bft) 0,00 h 0,23 h 27,2 km/h (4 Bft)
02.01.2012 01:00 16,9 C 12,2 C 0,0 UV-I 0,0 C 65 % 86 % 0 % 1004,2 hPa 2,2 l/m 11,9 km/h (2 Bft) 0,00 h 0,13 h 17,5 km/h (3 Bft)
02.01.2012 02:00 16,7 C 10,6 C 0,0 UV-I 0,0 C 65 % 90 % 0 % 1005,1 hPa 0,5 l/m 7,1 km/h (2 Bft) 0,00 h 0,00 h 13,0 km/h (3 Bft)
02.01.2012 03:00 16,5 C 10,3 C 0,0 UV-I 0,0 C 65 % 91 % 0 % 1005,3 hPa 0,1 l/m 5,3 km/h (1 Bft) 0,00 h 0,00 h 10,2 km/h (2 Bft)
02.01.2012 04:00 16,4 C 10,1 C 0,0 UV-I 0,0 C 65 % 91 % 0 % 1005,2 hPa 0,5 l/m 5,4 km/h (1 Bft) 0,00 h 0,00 h 10,2 km/h (2 Bft)
02.01.2012 05:00 16,2 C 9,9 C 0,0 UV-I 0,0 C 65 % 92 % 0 % 1004,8 hPa 0,1 l/m 5,5 km/h (1 Bft) 0,00 h 0,00 h 11,2 km/h (2 Bft)
02.01.2012 06:00 16,2 C 9,6 C 0,0 UV-I 0,0 C 64 % 91 % 0 % 1004,9 hPa 0,2 l/m 4,9 km/h (1 Bft) 0,00 h 0,63 h 9,5 km/h (2 Bft)
02.01.2012 07:00 16,1 C 8,7 C 0,0 UV-I 0,0 C 63 % 90 % 0 % 1005,5 hPa 0,6 l/m 5,8 km/h (2 Bft) 0,00 h 0,67 h 10,2 km/h (2 Bft)
02.01.2012 08:00 15,8 C 7,6 C 0,0 UV-I 0,0 C 62 % 91 % 0 % 1006,5 hPa 0,2 l/m 1,4 km/h (1 Bft) 0,00 h 0,53 h 4,0 km/h (1 Bft)
02.01.2012 09:00 15,6 C 7,4 C 0,0 UV-I 0,0 C 62 % 91 % 0 % 1006,9 hPa 0,6 l/m 1,9 km/h (1 Bft) 0,00 h 0,87 h 4,7 km/h (1 Bft)
02.01.2012 10:00 15,6 C 7,5 C 0,0 UV-I 0,0 C 61 % 91 % 0 % 1007,8 hPa 0,0 l/m 3,0 km/h (1 Bft) 0,00 h 0,00 h 6,8 km/h (2 Bft)
02.01.2012 11:00 15,8 C 7,8 C 0,0 UV-I 0,0 C 61 % 91 % 0 % 1008,3 hPa 0,0 l/m 3,9 km/h (1 Bft) 0,00 h 0,00 h 8,1 km/h (2 Bft)
02.01.2012 12:00 16,1 C 8,2 C 0,1 UV-I 0,3 C 59 % 89 % 10 % 1008,8 hPa 0,1 l/m 7,0 km/h (2 Bft) 0,00 h 0,00 h 12,9 km/h (3 Bft)
02.01.2012 13:00 16,3 C 8,5 C 0,0 UV-I 0,1 C 58 % 88 % 2 % 1009,3 hPa 0,0 l/m 6,4 km/h (2 Bft) 0,00 h 0,00 h 10,1 km/h (2 Bft)
02.01.2012 14:00 16,3 C 8,7 C 0,0 UV-I 0,0 C 58 % 88 % 0 % 1010,0 hPa 0,0 l/m 7,1 km/h (2 Bft) 0,00 h 0,00 h 11,6 km/h (2 Bft)
02.01.2012 15:00 16,1 C 8,7 C 0,0 UV-I 0,0 C 57 % 87 % 0 % 1010,6 hPa 0,0 l/m 5,7 km/h (1 Bft) 0,00 h 0,00 h 10,2 km/h (2 Bft)
02.01.2012 16:00 15,9 C 8,3 C 0,0 UV-I 0,0 C 56 % 84 % 0 % 1011,2 hPa 0,0 l/m 6,4 km/h (2 Bft) 0,00 h 0,00 h 11,3 km/h (2 Bft)
02.01.2012 17:00 15,6 C 7,8 C 0,0 UV-I 0,0 C 56 % 83 % 0 % 1012,2 hPa 0,0 l/m 8,0 km/h (2 Bft) 0,00 h 0,00 h 15,2 km/h (3 Bft)
02.01.2012 18:00 15,4 C 7,6 C 0,0 UV-I 0,0 C 55 % 82 % 0 % 1013,1 hPa 0,0 l/m 9,3 km/h (2 Bft) 0,00 h 0,00 h 13,6 km/h (3 Bft)
02.01.2012 19:00 15,1 C 6,8 C 0,0 UV-I 0,0 C 55 % 83 % 0 % 1014,0 hPa 0,0 l/m 6,6 km/h (2 Bft) 0,00 h 0,00 h 11,2 km/h (2 Bft)
02.01.2012 20:00 14,8 C 6,2 C 0,0 UV-I 0,0 C 55 % 84 % 0 % 1015,1 hPa 0,0 l/m 5,4 km/h (1 Bft) 0,00 h 0,00 h 10,5 km/h (2 Bft)
02.01.2012 21:00 14,6 C 5,7 C 0,0 UV-I 0,0 C 54 % 84 % 0 % 1015,5 hPa 0,0 l/m 6,6 km/h (2 Bft) 0,00 h 0,00 h 11,5 km/h (2 Bft)
02.01.2012 22:00 14,4 C 5,4 C 0,0 UV-I 0,0 C 54 % 84 % 0 % 1015,9 hPa 0,0 l/m 7,0 km/h (2 Bft) 0,00 h 0,00 h 13,9 km/h (3 Bft)
02.01.2012 23:00 14,4 C 5,2 C 0,0 UV-I 0,0 C 54 % 85 % 0 % 1016,6 hPa 0,0 l/m 6,4 km/h (2 Bft) 0,00 h 0,00 h 12,6 km/h (3 Bft)
03.01.2012 00:00 14,2 C 5,2 C 0,0 UV-I 0,0 C 54 % 85 % 0 % 1016,5 hPa 0,0 l/m 7,5 km/h (2 Bft) 0,00 h 0,00 h 14,0 km/h (3 Bft)
03.01.2012 01:00 14,1 C 5,2 C 0,0 UV-I 0,0 C 53 % 84 % 0 % 1016,6 hPa 0,0 l/m 8,2 km/h (2 Bft) 0,00 h 0,00 h 14,6 km/h (3 Bft)
03.01.2012 02:00 14,0 C 5,1 C 0,0 UV-I 0,0 C 53 % 84 % 0 % 1016,7 hPa 0,0 l/m 8,8 km/h (2 Bft) 0,00 h 0,00 h 17,6 km/h (3 Bft)
03.01.2012 03:00 14,0 C 5,2 C 0,0 UV-I 0,0 C 53 % 84 % 0 % 1016,8 hPa 0,0 l/m 8,2 km/h (2 Bft) 0,00 h 0,00 h 13,5 km/h (3 Bft)
03.01.2012 04:00 14,0 C 5,5 C 0,0 UV-I 0,0 C 53 % 84 % 0 % 1016,3 hPa 0,0 l/m 8,0 km/h (2 Bft) 0,00 h 0,00 h 12,5 km/h (3 Bft)
03.01.2012 05:00 14,0 C 5,7 C 0,0 UV-I 0,0 C 53 % 83 % 0 % 1015,4 hPa 0,0 l/m 6,2 km/h (2 Bft) 0,00 h 0,00 h 12,1 km/h (2 Bft)
03.01.2012 06:00 13,9 C 5,9 C 0,0 UV-I 0,0 C 53 % 82 % 0 % 1014,6 hPa 0,0 l/m 8,9 km/h (2 Bft) 0,00 h 0,00 h 19,0 km/h (3 Bft)
03.01.2012 07:00 13,9 C 6,3 C 0,0 UV-I 0,0 C 52 % 79 % 0 % 1013,6 hPa 0,0 l/m 10,0 km/h (2 Bft) 0,00 h 0,00 h 19,2 km/h (3 Bft)
03.01.2012 08:00 13,9 C 6,5 C 0,0 UV-I 0,0 C 52 % 80 % 0 % 1012,1 hPa 0,0 l/m 12,4 km/h (3 Bft) 0,00 h 0,13 h 19,8 km/h (3 Bft)
03.01.2012 09:00 13,9 C 7,0 C 0,0 UV-I 0,0 C 53 % 82 % 0 % 1011,0 hPa 0,2 l/m 12,9 km/h (3 Bft) 0,00 h 0,77 h 23,3 km/h (4 Bft)
03.01.2012 10:00 14,0 C 7,9 C 0,0 UV-I 0,0 C 54 % 82 % 0 % 1009,3 hPa 0,0 l/m 15,0 km/h (3 Bft) 0,00 h 0,00 h 25,2 km/h (4 Bft)
03.01.2012 11:00 14,2 C 9,3 C 0,0 UV-I 0,0 C 54 % 78 % 0 % 1008,0 hPa 0,0 l/m 19,7 km/h (3 Bft) 0,00 h 0,00 h 32,0 km/h (5 Bft)
03.01.2012 12:00 14,6 C 10,0 C 0,0 UV-I 0,0 C 54 % 77 % 0 % 1006,3 hPa 0,1 l/m 19,1 km/h (3 Bft) 0,00 h 0,00 h 31,2 km/h (5 Bft)
03.01.2012 13:00 14,7 C 10,5 C 0,0 UV-I 0,0 C 55 % 77 % 0 % 1005,0 hPa 0,0 l/m 18,7 km/h (3 Bft) 0,00 h 0,00 h 40,5 km/h (6 Bft)
03.01.2012 14:00 14,9 C 10,8 C 0,0 UV-I 0,0 C 55 % 77 % 0 % 1003,7 hPa 0,0 l/m 19,2 km/h (3 Bft) 0,00 h 0,00 h 37,9 km/h (5 Bft)
03.01.2012 15:00 15,1 C 11,3 C 0,0 UV-I 0,0 C 56 % 78 % 0 % 1002,0 hPa 0,0 l/m 21,3 km/h (4 Bft) 0,00 h 0,00 h 36,5 km/h (5 Bft)
03.01.2012 16:00 15,2 C 11,8 C 0,0 UV-I 0,0 C 57 % 78 % 0 % 1000,5 hPa 0,0 l/m 23,3 km/h (4 Bft) 0,00 h 0,33 h 42,1 km/h (6 Bft)
03.01.2012 17:00 15,2 C 11,2 C 0,0 UV-I 0,0 C 60 % 84 % 0 % 1000,4 hPa 0,9 l/m 22,7 km/h (4 Bft) 0,00 h 0,83 h 37,3 km/h (5 Bft)
03.01.2012 18:00 15,2 C 11,1 C 0,0 UV-I 0,0 C 62 % 88 % 0 % 1001,5 hPa 1,7 l/m 20,3 km/h (4 Bft) 0,00 h 0,50 h 34,5 km/h (5 Bft)
03.01.2012 19:00 15,2 C 10,3 C 0,0 UV-I 0,0 C 61 % 81 % 0 % 1003,5 hPa 0,0 l/m 16,7 km/h (3 Bft) 0,00 h 0,00 h 29,0 km/h (5 Bft)
03.01.2012 20:00 14,9 C 9,6 C 0,0 UV-I 0,0 C 57 % 75 % 0 % 1004,8 hPa 0,0 l/m 17,0 km/h (3 Bft) 0,00 h 0,23 h 27,4 km/h (4 Bft)
03.01.2012 21:00 14,8 C 8,7 C 0,0 UV-I 0,0 C 57 % 80 % 0 % 1005,7 hPa 0,2 l/m 13,0 km/h (3 Bft) 0,00 h 0,10 h 19,3 km/h (3 Bft)
03.01.2012 22:00 14,6 C 8,8 C 0,0 UV-I 0,0 C 56 % 77 % 0 % 1006,7 hPa 0,0 l/m 11,7 km/h (2 Bft) 0,00 h 0,00 h 19,4 km/h (3 Bft)
03.01.2012 23:00 14,4 C 8,2 C 0,0 UV-I 0,0 C 54 % 73 % 0 % 1007,1 hPa 0,0 l/m 10,4 km/h (2 Bft) 0,00 h 0,00 h 18,9 km/h (3 Bft)
04.01.2012 00:00 14,3 C 7,6 C 0,0 UV-I 0,0 C 52 % 72 % 0 % 1007,0 hPa 0,0 l/m 10,3 km/h (2 Bft) 0,00 h 0,00 h 19,0 km/h (3 Bft)
04.01.2012 01:00 14,1 C 7,0 C 0,0 UV-I 0,0 C 52 % 73 % 0 % 1007,0 hPa 0,0 l/m 10,0 km/h (2 Bft) 0,00 h 0,00 h 17,8 km/h (3 Bft)
04.01.2012 02:00 14,0 C 6,6 C 0,0 UV-I 0,0 C 51 % 74 % 0 % 1007,0 hPa 0,0 l/m 12,1 km/h (2 Bft) 0,00 h 0,00 h 22,3 km/h (4 Bft)
04.01.2012 03:00 13,8 C 6,3 C 0,0 UV-I 0,0 C 51 % 75 % 0 % 1007,3 hPa 0,0 l/m 10,4 km/h (2 Bft) 0,00 h 0,00 h 16,9 km/h (3 Bft)
04.01.2012 04:00 13,7 C 6,1 C 0,0 UV-I 0,0 C 51 % 77 % 0 % 1007,3 hPa 0,0 l/m 10,0 km/h (2 Bft) 0,00 h 0,00 h 13,7 km/h (3 Bft)
04.01.2012 05:00 13,7 C 6,1 C 0,0 UV-I 0,0 C 51 % 78 % 0 % 1007,6 hPa 0,1 l/m 14,3 km/h (3 Bft) 0,00 h 0,53 h 22,1 km/h (4 Bft)
04.01.2012 06:00 13,6 C 5,6 C 0,0 UV-I 0,0 C 52 % 83 % 0 % 1008,6 hPa 0,1 l/m 14,4 km/h (3 Bft) 0,00 h 0,50 h 25,3 km/h (4 Bft)
04.01.2012 07:00 13,5 C 6,0 C 0,0 UV-I 0,0 C 53 % 82 % 0 % 1009,9 hPa 0,0 l/m 14,2 km/h (3 Bft) 0,00 h 0,43 h 22,1 km/h (4 Bft)
04.01.2012 08:00 13,5 C 6,2 C 0,0 UV-I 0,0 C 52 % 80 % 0 % 1011,4 hPa 0,0 l/m 14,4 km/h (3 Bft) 0,00 h 0,43 h 28,6 km/h (4 Bft)
04.01.2012 09:00 13,6 C 6,1 C 0,0 UV-I 0,0 C 52 % 81 % 0 % 1013,1 hPa 0,0 l/m 12,6 km/h (3 Bft) 0,00 h 0,03 h 20,7 km/h (4 Bft)
04.01.2012 10:00 13,6 C 6,6 C 0,0 UV-I 0,0 C 52 % 78 % 0 % 1014,7 hPa 0,0 l/m 13,5 km/h (3 Bft) 0,00 h 0,00 h 21,9 km/h (4 Bft)
04.01.2012 11:00 13,8 C 7,1 C 0,0 UV-I 0,1 C 51 % 75 % 2 % 1015,6 hPa 0,0 l/m 13,5 km/h (3 Bft) 0,00 h 0,00 h 20,3 km/h (4 Bft)
04.01.2012 12:00 13,8 C 7,1 C 0,0 UV-I 0,0 C 51 % 75 % 0 % 1016,1 hPa 0,0 l/m 13,8 km/h (3 Bft) 0,00 h 0,03 h 25,5 km/h (4 Bft)
04.01.2012 13:00 13,9 C 7,2 C 0,0 UV-I 0,0 C 50 % 75 % 0 % 1016,1 hPa 0,0 l/m 12,9 km/h (3 Bft) 0,00 h 0,03 h 20,1 km/h (4 Bft)
04.01.2012 14:00 13,9 C 7,3 C 0,0 UV-I 0,0 C 50 % 75 % 0 % 1016,0 hPa 0,0 l/m 12,2 km/h (2 Bft) 0,00 h 0,00 h 21,3 km/h (4 Bft)
04.01.2012 15:00 13,9 C 7,4 C 0,0 UV-I 0,0 C 50 % 74 % 0 % 1016,0 hPa 0,0 l/m 12,1 km/h (2 Bft) 0,00 h 0,00 h 19,4 km/h (3 Bft)
04.01.2012 16:00 13,8 C 7,3 C 0,0 UV-I 0,0 C 49 % 73 % 0 % 1015,7 hPa 0,0 l/m 11,8 km/h (2 Bft) 0,00 h 0,00 h 18,6 km/h (3 Bft)
04.01.2012 17:00 13,7 C 7,2 C 0,0 UV-I 0,0 C 50 % 74 % 0 % 1015,3 hPa 0,0 l/m 9,7 km/h (2 Bft) 0,00 h 0,00 h 15,3 km/h (3 Bft)
04.01.2012 18:00 13,6 C 7,1 C 0,0 UV-I 0,0 C 51 % 77 % 0 % 1014,1 hPa 0,0 l/m 10,2 km/h (2 Bft) 0,00 h 0,00 h 16,4 km/h (3 Bft)
04.01.2012 19:00 13,6 C 7,3 C 0,0 UV-I 0,0 C 52 % 78 % 0 % 1013,0 hPa 0,0 l/m 13,4 km/h (3 Bft) 0,00 h 0,50 h 20,8 km/h (4 Bft)
04.01.2012 20:00 13,8 C 7,5 C 0,0 UV-I 0,0 C 52 % 80 % 0 % 1010,8 hPa 0,0 l/m 15,5 km/h (3 Bft) 0,00 h 0,23 h 27,7 km/h (4 Bft)
04.01.2012 21:00 13,9 C 7,3 C 0,0 UV-I 0,0 C 53 % 82 % 0 % 1009,1 hPa 0,1 l/m 16,4 km/h (3 Bft) 0,00 h 0,67 h 27,7 km/h (4 Bft)
04.01.2012 22:00 13,8 C 6,9 C 0,0 UV-I 0,0 C 55 % 87 % 0 % 1007,0 hPa 1,1 l/m 17,6 km/h (3 Bft) 0,00 h 0,93 h 27,1 km/h (4 Bft)
04.01.2012 23:00 13,8 C 7,1 C 0,0 UV-I 0,0 C 56 % 88 % 0 % 1004,1 hPa 0,4 l/m 17,6 km/h (3 Bft) 0,00 h 0,37 h 30,7 km/h (5 Bft)
05.01.2012 00:00 13,8 C 7,2 C 0,0 UV-I 0,0 C 56 % 87 % 0 % 1001,7 hPa 0,1 l/m 23,4 km/h (4 Bft) 0,00 h 0,77 h 42,0 km/h (6 Bft)
05.01.2012 01:00 13,7 C 7,3 C 0,0 UV-I 0,0 C 56 % 87 % 0 % 999,8 hPa 0,1 l/m 22,3 km/h (4 Bft) 0,00 h 0,57 h 32,6 km/h (5 Bft)
05.01.2012 02:00 13,6 C 7,5 C 0,0 UV-I 0,0 C 57 % 87 % 0 % 997,6 hPa 0,6 l/m 21,5 km/h (4 Bft) 0,00 h 0,87 h 31,2 km/h (5 Bft)
05.01.2012 03:00 13,7 C 7,9 C 0,0 UV-I 0,0 C 59 % 89 % 0 % 996,5 hPa 0,9 l/m 19,4 km/h (3 Bft) 0,00 h 0,80 h 30,3 km/h (5 Bft)
05.01.2012 04:00 13,8 C 8,3 C 0,0 UV-I 0,0 C 60 % 90 % 0 % 995,4 hPa 1,0 l/m 18,7 km/h (3 Bft) 0,00 h 0,00 h 30,3 km/h (5 Bft)
05.01.2012 05:00 13,8 C 8,6 C 0,0 UV-I 0,0 C 62 % 91 % 0 % 993,7 hPa 0,1 l/m 20,3 km/h (4 Bft) 0,00 h 0,40 h 32,7 km/h (5 Bft)
05.01.2012 06:00 13,9 C 8,9 C 0,0 UV-I 0,0 C 62 % 90 % 0 % 991,9 hPa 0,6 l/m 21,1 km/h (4 Bft) 0,00 h 0,87 h 33,6 km/h (5 Bft)
05.01.2012 07:00 14,0 C 9,2 C 0,0 UV-I 0,0 C 63 % 90 % 0 % 990,5 hPa 0,4 l/m 20,0 km/h (4 Bft) 0,00 h 0,73 h 32,3 km/h (5 Bft)
05.01.2012 08:00 13,8 C 7,6 C 0,0 UV-I 0,0 C 63 % 89 % 0 % 989,9 hPa 9,5 l/m 13,6 km/h (3 Bft) 0,00 h 0,13 h 20,5 km/h (4 Bft)
05.01.2012 09:00 13,6 C 6,5 C 0,0 UV-I 0,0 C 61 % 91 % 0 % 989,7 hPa 1,1 l/m 12,4 km/h (3 Bft) 0,00 h 0,17 h 21,4 km/h (4 Bft)
05.01.2012 10:00 13,6 C 7,8 C 0,0 UV-I 0,0 C 60 % 86 % 0 % 988,9 hPa 0,0 l/m 16,3 km/h (3 Bft) 0,00 h 0,17 h 24,7 km/h (4 Bft)
05.01.2012 11:00 13,7 C 8,2 C 0,0 UV-I 0,0 C 59 % 84 % 0 % 988,8 hPa 0,0 l/m 15,1 km/h (3 Bft) 0,00 h 0,17 h 23,4 km/h (4 Bft)
05.01.2012 12:00 13,9 C 8,5 C 0,0 UV-I 0,5 C 57 % 79 % 14 % 988,9 hPa 0,0 l/m 17,2 km/h (3 Bft) 0,00 h 0,00 h 30,2 km/h (5 Bft)
05.01.2012 13:00 14,2 C 8,8 C 0,1 UV-I 0,5 C 55 % 70 % 16 % 989,6 hPa 0,0 l/m 17,0 km/h (3 Bft) 0,07 h 0,03 h 28,5 km/h (4 Bft)
05.01.2012 14:00 14,6 C 8,2 C 0,0 UV-I 0,0 C 52 % 71 % 0 % 990,7 hPa 0,7 l/m 16,6 km/h (3 Bft) 0,00 h 0,43 h 31,0 km/h (5 Bft)
05.01.2012 15:00 14,4 C 7,8 C 0,0 UV-I 0,0 C 53 % 75 % 0 % 991,5 hPa 0,0 l/m 14,9 km/h (3 Bft) 0,00 h 0,30 h 29,8 km/h (5 Bft)
05.01.2012 16:00 14,3 C 7,9 C 0,0 UV-I 0,0 C 52 % 72 % 0 % 992,9 hPa 0,1 l/m 16,5 km/h (3 Bft) 0,00 h 0,00 h 32,4 km/h (5 Bft)
05.01.2012 17:00 14,0 C 7,6 C 0,0 UV-I 0,0 C 52 % 74 % 0 % 994,2 hPa 1,0 l/m 14,2 km/h (3 Bft) 0,00 h 0,33 h 25,0 km/h (4 Bft)
05.01.2012 18:00 13,8 C 4,6 C 0,0 UV-I 0,0 C 53 % 84 % 0 % 996,3 hPa 2,5 l/m 12,1 km/h (2 Bft) 0,00 h 0,03 h 17,6 km/h (3 Bft)
05.01.2012 19:00 13,6 C 4,4 C 0,0 UV-I 0,0 C 54 % 88 % 0 % 997,8 hPa 0,0 l/m 9,3 km/h (2 Bft) 0,00 h 0,00 h 19,0 km/h (3 Bft)
05.01.2012 20:00 13,5 C 5,1 C 0,0 UV-I 0,0 C 54 % 85 % 0 % 999,5 hPa 0,0 l/m 9,8 km/h (2 Bft) 0,00 h 0,17 h 17,4 km/h (3 Bft)
05.01.2012 21:00 13,5 C 5,3 C 0,0 UV-I 0,0 C 53 % 82 % 0 % 1001,1 hPa 0,0 l/m 11,4 km/h (2 Bft) 0,00 h 0,00 h 21,6 km/h (4 Bft)
05.01.2012 22:00 13,4 C 5,1 C 0,0 UV-I 0,0 C 53 % 80 % 0 % 1002,1 hPa 0,1 l/m 12,3 km/h (3 Bft) 0,00 h 0,23 h 21,5 km/h (4 Bft)
05.01.2012 23:00 13,3 C 4,4 C 0,0 UV-I 0,0 C 52 % 82 % 0 % 1003,2 hPa 0,1 l/m 12,8 km/h (3 Bft) 0,00 h 0,70 h 20,8 km/h (4 Bft)
06.01.2012 00:00 13,3 C 4,4 C 0,0 UV-I 0,0 C 53 % 84 % 0 % 1004,1 hPa 0,1 l/m 11,1 km/h (2 Bft) 0,00 h 0,10 h 21,8 km/h (4 Bft)
06.01.2012 01:00 13,2 C 4,6 C 0,0 UV-I 0,0 C 52 % 83 % 0 % 1005,3 hPa 0,0 l/m 11,7 km/h (2 Bft) 0,00 h 0,00 h 18,2 km/h (3 Bft)
06.01.2012 02:00 13,2 C 4,6 C 0,0 UV-I 0,0 C 52 % 84 % 0 % 1006,3 hPa 0,0 l/m 10,8 km/h (2 Bft) 0,00 h 0,07 h 20,4 km/h (4 Bft)
06.01.2012 03:00 13,2 C 4,5 C 0,0 UV-I 0,0 C 52 % 84 % 0 % 1007,4 hPa 0,0 l/m 10,2 km/h (2 Bft) 0,00 h 0,00 h 17,7 km/h (3 Bft)
06.01.2012 04:00 13,2 C 4,8 C 0,0 UV-I 0,0 C 52 % 85 % 0 % 1008,5 hPa 0,0 l/m 9,6 km/h (2 Bft) 0,00 h 0,00 h 17,0 km/h (3 Bft)
06.01.2012 05:00 13,2 C 5,4 C 0,0 UV-I 0,0 C 52 % 83 % 0 % 1009,4 hPa 0,0 l/m 9,6 km/h (2 Bft) 0,00 h 0,00 h 16,8 km/h (3 Bft)
06.01.2012 06:00 13,1 C 5,9 C 0,0 UV-I 0,0 C 52 % 82 % 0 % 1010,5 hPa 0,0 l/m 10,2 km/h (2 Bft) 0,00 h 0,47 h 17,6 km/h (3 Bft)
06.01.2012 07:00 13,2 C 6,0 C 0,0 UV-I 0,0 C 53 % 84 % 0 % 1011,6 hPa 0,0 l/m 9,5 km/h (2 Bft) 0,00 h 0,30 h 16,8 km/h (3 Bft)
06.01.2012 08:00 13,2 C 6,2 C 0,0 UV-I 0,0 C 54 % 84 % 0 % 1013,1 hPa 0,0 l/m 8,7 km/h (2 Bft) 0,00 h 0,00 h 14,1 km/h (3 Bft)
06.01.2012 09:00 13,4 C 6,5 C 0,0 UV-I 0,0 C 54 % 83 % 0 % 1014,9 hPa 0,0 l/m 8,4 km/h (2 Bft) 0,00 h 0,00 h 17,3 km/h (3 Bft)
06.01.2012 10:00 13,6 C 6,7 C 0,0 UV-I 0,1 C 54 % 83 % 3 % 1016,3 hPa 0,0 l/m 9,1 km/h (2 Bft) 0,00 h 0,10 h 17,0 km/h (3 Bft)
06.01.2012 11:00 13,7 C 7,1 C 0,0 UV-I 0,2 C 54 % 83 % 6 % 1017,7 hPa 0,0 l/m 9,8 km/h (2 Bft) 0,00 h 0,20 h 16,6 km/h (3 Bft)
06.01.2012 12:00 13,9 C 7,4 C 0,0 UV-I 0,5 C 54 % 83 % 13 % 1018,3 hPa 0,0 l/m 6,8 km/h (2 Bft) 0,00 h 0,10 h 13,9 km/h (3 Bft)
06.01.2012 13:00 14,0 C 7,8 C 0,0 UV-I 0,3 C 54 % 80 % 8 % 1018,9 hPa 0,0 l/m 8,2 km/h (2 Bft) 0,00 h 0,00 h 15,9 km/h (3 Bft)
06.01.2012 14:00 14,6 C 8,3 C 0,1 UV-I 1,8 C 53 % 77 % 52 % 1019,8 hPa 0,0 l/m 9,8 km/h (2 Bft) 0,57 h 0,00 h 17,7 km/h (3 Bft)
06.01.2012 15:00 14,8 C 8,1 C 0,0 UV-I 0,0 C 52 % 76 % 1 % 1020,4 hPa 0,0 l/m 8,3 km/h (2 Bft) 0,00 h 0,10 h 13,2 km/h (3 Bft)
06.01.2012 16:00 14,6 C 7,5 C 0,0 UV-I 0,0 C 52 % 78 % 0 % 1021,1 hPa 0,0 l/m 5,5 km/h (1 Bft) 0,00 h 0,00 h 9,6 km/h (2 Bft)
06.01.2012 17:00 14,3 C 7,2 C 0,0 UV-I 0,0 C 53 % 81 % 0 % 1021,5 hPa 0,0 l/m 4,9 km/h (1 Bft) 0,00 h 0,00 h 8,1 km/h (2 Bft)
06.01.2012 18:00 14,1 C 6,7 C 0,0 UV-I 0,0 C 54 % 82 % 0 % 1021,7 hPa 0,0 l/m 6,0 km/h (2 Bft) 0,00 h 0,00 h 11,6 km/h (2 Bft)
06.01.2012 19:00 14,0 C 6,3 C 0,0 UV-I 0,0 C 54 % 84 % 0 % 1022,1 hPa 0,0 l/m 6,4 km/h (2 Bft) 0,00 h 0,00 h 10,4 km/h (2 Bft)
06.01.2012 20:00 13,9 C 6,0 C 0,0 UV-I 0,0 C 54 % 85 % 0 % 1022,7 hPa 0,0 l/m 5,4 km/h (1 Bft) 0,00 h 0,07 h 11,6 km/h (2 Bft)
06.01.2012 21:00 13,7 C 5,7 C 0,0 UV-I 0,0 C 54 % 85 % 0 % 1023,0 hPa 0,0 l/m 7,0 km/h (2 Bft) 0,00 h 0,00 h 12,7 km/h (3 Bft)
06.01.2012 22:00 13,6 C 5,4 C 0,0 UV-I 0,0 C 53 % 84 % 0 % 1022,8 hPa 0,0 l/m 8,5 km/h (2 Bft) 0,00 h 0,00 h 14,7 km/h (3 Bft)
06.01.2012 23:00 13,4 C 4,8 C 0,0 UV-I 0,0 C 52 % 83 % 0 % 1021,9 hPa 0,0 l/m 7,7 km/h (2 Bft) 0,00 h 0,00 h 14,5 km/h (3 Bft)
07.01.2012 00:00 13,3 C 4,4 C 0,0 UV-I 0,0 C 52 % 83 % 0 % 1020,9 hPa 0,0 l/m 4,5 km/h (1 Bft) 0,00 h 0,00 h 9,5 km/h (2 Bft)
07.01.2012 01:00 13,3 C 4,5 C 0,0 UV-I 0,0 C 52 % 84 % 0 % 1019,5 hPa 0,0 l/m 6,1 km/h (2 Bft) 0,00 h 0,00 h 13,5 km/h (3 Bft)
07.01.2012 02:00 13,2 C 5,0 C 0,0 UV-I 0,0 C 52 % 85 % 0 % 1018,4 hPa 0,0 l/m 7,0 km/h (2 Bft) 0,00 h 0,33 h 12,9 km/h (3 Bft)
07.01.2012 03:00 13,3 C 5,1 C 0,0 UV-I 0,0 C 53 % 87 % 0 % 1017,2 hPa 0,2 l/m 6,9 km/h (2 Bft) 0,00 h 0,70 h 12,3 km/h (3 Bft)
07.01.2012 04:00 13,3 C 5,4 C 0,0 UV-I 0,0 C 55 % 90 % 0 % 1016,3 hPa 0,2 l/m 8,2 km/h (2 Bft) 0,00 h 0,43 h 14,0 km/h (3 Bft)
07.01.2012 05:00 13,2 C 5,8 C 0,0 UV-I 0,0 C 56 % 92 % 0 % 1015,1 hPa 0,1 l/m 9,2 km/h (2 Bft) 0,00 h 0,50 h 14,6 km/h (3 Bft)
07.01.2012 06:00 13,3 C 6,4 C 0,0 UV-I 0,0 C 58 % 92 % 0 % 1014,2 hPa 0,1 l/m 11,1 km/h (2 Bft) 0,00 h 0,33 h 17,3 km/h (3 Bft)
07.01.2012 07:00 13,2 C 6,9 C 0,0 UV-I 0,0 C 59 % 93 % 0 % 1013,4 hPa 1,2 l/m 11,0 km/h (2 Bft) 0,00 h 0,67 h 19,5 km/h (3 Bft)
07.01.2012 08:00 13,4 C 7,4 C 0,0 UV-I 0,0 C 61 % 93 % 0 % 1013,4 hPa 1,1 l/m 10,2 km/h (2 Bft) 0,00 h 0,30 h 15,5 km/h (3 Bft)
07.01.2012 09:00 13,4 C 8,1 C 0,0 UV-I 0,0 C 62 % 93 % 0 % 1013,5 hPa 0,1 l/m 9,7 km/h (2 Bft) 0,00 h 0,27 h 17,1 km/h (3 Bft)
07.01.2012 10:00 13,6 C 8,7 C 0,0 UV-I 0,0 C 62 % 92 % 0 % 1014,0 hPa 0,0 l/m 11,4 km/h (2 Bft) 0,00 h 0,43 h 21,2 km/h (4 Bft)
07.01.2012 11:00 13,9 C 8,6 C 0,1 UV-I 0,9 C 61 % 89 % 26 % 1014,5 hPa 0,2 l/m 11,0 km/h (2 Bft) 0,17 h 0,17 h 18,6 km/h (3 Bft)
07.01.2012 12:00 13,9 C 8,8 C 0,0 UV-I 0,1 C 59 % 86 % 2 % 1014,4 hPa 0,0 l/m 8,4 km/h (2 Bft) 0,00 h 0,00 h 16,2 km/h (3 Bft)
07.01.2012 13:00 14,1 C 8,8 C 0,0 UV-I 0,0 C 58 % 82 % 0 % 1014,3 hPa 0,1 l/m 9,2 km/h (2 Bft) 0,00 h 0,23 h 17,2 km/h (3 Bft)
07.01.2012 14:00 14,1 C 8,5 C 0,0 UV-I 0,0 C 57 % 79 % 0 % 1014,4 hPa 0,0 l/m 9,9 km/h (2 Bft) 0,00 h 0,23 h 17,9 km/h (3 Bft)
07.01.2012 15:00 14,1 C 8,3 C 0,0 UV-I 0,0 C 56 % 78 % 0 % 1015,0 hPa 0,0 l/m 11,7 km/h (2 Bft) 0,00 h 0,27 h 21,7 km/h (4 Bft)
07.01.2012 16:00 14,0 C 6,7 C 0,0 UV-I 0,0 C 56 % 84 % 0 % 1015,8 hPa 0,9 l/m 12,6 km/h (3 Bft) 0,00 h 0,43 h 19,7 km/h (3 Bft)
07.01.2012 17:00 13,9 C 6,3 C 0,0 UV-I 0,0 C 56 % 85 % 0 % 1016,7 hPa 0,0 l/m 8,1 km/h (2 Bft) 0,00 h 0,27 h 15,7 km/h (3 Bft)
07.01.2012 18:00 13,9 C 6,6 C 0,0 UV-I 0,0 C 56 % 85 % 0 % 1017,2 hPa 0,1 l/m 9,8 km/h (2 Bft) 0,00 h 0,47 h 18,3 km/h (3 Bft)
07.01.2012 19:00 13,8 C 6,4 C 0,0 UV-I 0,0 C 56 % 85 % 0 % 1017,5 hPa 0,1 l/m 7,2 km/h (2 Bft) 0,00 h 0,47 h 14,9 km/h (3 Bft)
07.01.2012 20:00 13,8 C 6,3 C 0,0 UV-I 0,0 C 56 % 85 % 0 % 1018,0 hPa 0,0 l/m 6,6 km/h (2 Bft) 0,00 h 0,30 h 11,7 km/h (2 Bft)
07.01.2012 21:00 13,8 C 6,3 C 0,0 UV-I 0,0 C 56 % 86 % 0 % 1018,3 hPa 0,4 l/m 5,1 km/h (1 Bft) 0,00 h 0,40 h 9,8 km/h (2 Bft)
07.01.2012 22:00 13,8 C 6,1 C 0,0 UV-I 0,0 C 56 % 88 % 0 % 1018,7 hPa 0,1 l/m 4,0 km/h (1 Bft) 0,00 h 0,23 h 9,1 km/h (2 Bft)
07.01.2012 23:00 13,8 C 6,4 C 0,0 UV-I 0,0 C 56 % 87 % 0 % 1018,5 hPa 0,0 l/m 7,0 km/h (2 Bft) 0,00 h 0,00 h 12,6 km/h (3 Bft)
08.01.2012 00:00 13,7 C 6,5 C 0,0 UV-I 0,0 C 56 % 87 % 0 % 1018,4 hPa 0,0 l/m 6,2 km/h (2 Bft) 0,00 h 0,00 h 15,2 km/h (3 Bft)
08.01.2012 01:00 13,7 C 6,8 C 0,0 UV-I 0,0 C 56 % 85 % 0 % 1018,2 hPa 0,0 l/m 7,7 km/h (2 Bft) 0,00 h 0,00 h 11,0 km/h (2 Bft)
08.01.2012 02:00 13,8 C 6,9 C 0,0 UV-I 0,0 C 56 % 85 % 0 % 1018,4 hPa 0,0 l/m 8,3 km/h (2 Bft) 0,00 h 0,00 h 17,0 km/h (3 Bft)
08.01.2012 03:00 13,8 C 7,0 C 0,0 UV-I 0,0 C 56 % 85 % 0 % 1018,2 hPa 0,0 l/m 7,0 km/h (2 Bft) 0,00 h 0,07 h 12,1 km/h (2 Bft)
08.01.2012 04:00 13,8 C 6,8 C 0,0 UV-I 0,0 C 56 % 85 % 0 % 1018,0 hPa 0,0 l/m 8,9 km/h (2 Bft) 0,00 h 0,37 h 17,4 km/h (3 Bft)
08.01.2012 05:00 13,8 C 6,0 C 0,0 UV-I 0,0 C 56 % 88 % 0 % 1018,1 hPa 2,4 l/m 9,1 km/h (2 Bft) 0,00 h 1,00 h 17,0 km/h (3 Bft)
08.01.2012 06:00 13,7 C 5,6 C 0,0 UV-I 0,0 C 56 % 90 % 0 % 1018,3 hPa 1,2 l/m 4,3 km/h (1 Bft) 0,00 h 0,57 h 7,9 km/h (2 Bft)
08.01.2012 07:00 13,7 C 5,4 C 0,0 UV-I 0,0 C 57 % 90 % 0 % 1018,8 hPa 0,0 l/m 3,3 km/h (1 Bft) 0,00 h 0,00 h 7,8 km/h (2 Bft)
08.01.2012 08:00 13,6 C 5,6 C 0,0 UV-I 0,0 C 57 % 91 % 0 % 1019,0 hPa 0,0 l/m 4,0 km/h (1 Bft) 0,00 h 0,00 h 9,3 km/h (2 Bft)
08.01.2012 09:00 13,6 C 6,0 C 0,0 UV-I 0,0 C 57 % 92 % 0 % 1019,7 hPa 0,0 l/m 5,7 km/h (1 Bft) 0,00 h 0,00 h 10,9 km/h (2 Bft)
08.01.2012 10:00 13,7 C 6,3 C 0,0 UV-I 0,0 C 57 % 91 % 0 % 1020,4 hPa 0,0 l/m 5,7 km/h (1 Bft) 0,00 h 0,00 h 11,0 km/h (2 Bft)
08.01.2012 11:00 13,8 C 6,8 C 0,0 UV-I 0,0 C 57 % 90 % 1 % 1020,9 hPa 0,0 l/m 7,4 km/h (2 Bft) 0,00 h 0,00 h 15,3 km/h (3 Bft)
08.01.2012 12:00 14,0 C 7,3 C 0,0 UV-I 0,0 C 56 % 88 % 0 % 1021,0 hPa 0,0 l/m 8,7 km/h (2 Bft) 0,00 h 0,00 h 14,4 km/h (3 Bft)
08.01.2012 13:00 14,2 C 7,5 C 0,0 UV-I 0,0 C 56 % 87 % 0 % 1020,9 hPa 0,0 l/m 7,8 km/h (2 Bft) 0,00 h 0,27 h 15,3 km/h (3 Bft)
08.01.2012 14:00 14,1 C 7,5 C 0,0 UV-I 0,0 C 56 % 86 % 0 % 1021,1 hPa 0,1 l/m 6,7 km/h (2 Bft) 0,00 h 0,47 h 13,7 km/h (3 Bft)
08.01.2012 15:00 14,2 C 7,0 C 0,0 UV-I 0,0 C 56 % 88 % 0 % 1021,7 hPa 0,9 l/m 6,1 km/h (2 Bft) 0,00 h 0,50 h 12,8 km/h (3 Bft)
08.01.2012 16:00 14,2 C 6,5 C 0,0 UV-I 0,0 C 57 % 88 % 0 % 1022,3 hPa 0,0 l/m 4,3 km/h (1 Bft) 0,00 h 0,00 h 9,2 km/h (2 Bft)
08.01.2012 17:00 14,1 C 6,8 C 0,0 UV-I 0,0 C 56 % 88 % 0 % 1023,0 hPa 0,5 l/m 7,3 km/h (2 Bft) 0,00 h 0,50 h 13,4 km/h (3 Bft)
08.01.2012 18:00 14,0 C 6,1 C 0,0 UV-I 0,0 C 57 % 88 % 0 % 1023,5 hPa 0,2 l/m 2,5 km/h (1 Bft) 0,00 h 0,07 h 6,1 km/h (2 Bft)
08.01.2012 19:00 14,0 C 6,1 C 0,0 UV-I 0,0 C 57 % 89 % 0 % 1024,2 hPa 0,0 l/m 2,1 km/h (1 Bft) 0,00 h 0,00 h 4,7 km/h (1 Bft)
08.01.2012 20:00 14,0 C 6,2 C 0,0 UV-I 0,0 C 57 % 89 % 0 % 1024,8 hPa 0,0 l/m 1,5 km/h (1 Bft) 0,00 h 0,00 h 4,9 km/h (1 Bft)
08.01.2012 21:00 14,0 C 6,1 C 0,0 UV-I 0,0 C 57 % 89 % 0 % 1025,2 hPa 0,0 l/m 0,8 km/h (0 Bft) 0,00 h 0,00 h 3,7 km/h (1 Bft)
08.01.2012 22:00 14,0 C 5,9 C 0,0 UV-I 0,0 C 57 % 89 % 0 % 1025,6 hPa 0,0 l/m 2,4 km/h (1 Bft) 0,00 h 0,00 h 6,8 km/h (2 Bft)
08.01.2012 23:00 14,0 C 5,7 C 0,0 UV-I 0,0 C 57 % 91 % 0 % 1025,9 hPa 0,0 l/m 3,6 km/h (1 Bft) 0,00 h 0,00 h 9,0 km/h (2 Bft)
Min-Datum _ 06.01.12 05.01.12 02.01.12 02.01.12 04.01.12 05.01.12 02.01.12 05.01.12 - 02.01.12 - - 02.01.12
_ Min-Zeit 00:42 23:52 00:00 00:00 16:06 14:18 00:00 11:44 - 08:58 - - 03:44
Minimum _ 13,1 C 3,8 C 0,0 UV-I 0,0 C 49 % 67 % 0 % 988,6 hPa - 0,0 km/h (0 Bft) - - 0,0 km/h (0 Bft)
Max-Datum _ 02.01.12 02.01.12 06.01.12 06.01.12 02.01.12 07.01.12 06.01.12 08.01.12 05.01.12 03.01.12 05.01.12 02.01.12 03.01.12
_ Max-Zeit 00:46 00:06 14:04 14:34 01:12 09:42 14:34 23:24 08:30 16:58 13:22 00:46 14:22
Maximum _ 17,0 C 14,5 C 0,3 UV-I 3,4 C 66 % 94 % 97 % 1026,0 hPa 9,5 l/m 28,5 km/h
SO (4 Bft)
0,03 h 0,03 h 97,2 km/h
N-NO (10 Bft)
Durchschnitt _ 14,2 C 7,1 C 0,0 UV-I 0,0 C 56 % 84 % 1 % 1011,0 hPa #40,1 l/m 10,3 km/h (2 Bft) #48 min. #31:20 h 18,1 km/h (3 Bft)
© 2012 W. Hausmann